createdAt,value
2018-05-17T04:01:38.374Z,24.80
2018-05-17T04:04:16.648Z,24.67
2018-05-17T04:06:42.415Z,24.17
2018-05-17T04:09:08.445Z,24.80
2018-05-17T04:11:34.213Z,23.73
2018-05-17T04:14:00.229Z,23.90
2018-05-17T04:16:25.948Z,22.83
2018-05-17T04:18:51.714Z,27.20
2018-05-17T04:21:17.484Z,24.43
2018-05-17T04:23:43.288Z,26.57
2018-05-17T04:26:09.048Z,24.07
2018-05-17T04:28:34.940Z,24.33
2018-05-17T04:31:00.721Z,24.03
2018-05-17T04:33:26.474Z,25.53
2018-05-17T04:35:52.242Z,23.00
2018-05-17T04:38:18.012Z,23.53
2018-05-17T04:40:43.777Z,22.77
2018-05-17T04:43:09.532Z,23.03
2018-05-17T04:45:35.305Z,25.30
2018-05-17T04:48:01.078Z,23.30
2018-05-17T04:50:26.866Z,22.33
2018-05-17T04:52:52.626Z,21.00
2018-05-17T04:55:18.385Z,24.67
2018-05-17T04:57:44.134Z,22.70
2018-05-17T05:00:09.898Z,22.60
2018-05-17T05:02:35.676Z,22.03
2018-05-17T05:05:01.426Z,22.73
2018-05-17T05:07:27.185Z,24.00
2018-05-17T05:09:52.941Z,23.07
2018-05-17T05:12:18.702Z,24.87
2018-05-17T05:14:44.454Z,21.93
2018-05-17T05:17:10.222Z,21.43
2018-05-17T05:19:38.056Z,23.10
2018-05-17T05:22:04.839Z,23.30
2018-05-17T05:24:32.833Z,21.27
2018-05-17T05:26:59.485Z,27.00
2018-05-17T05:29:25.277Z,24.47
2018-05-17T05:31:51.632Z,24.77
2018-05-17T05:34:17.385Z,24.63
2018-05-17T05:36:43.142Z,22.97
2018-05-17T05:39:08.902Z,23.97
2018-05-17T05:41:34.690Z,24.60
2018-05-17T05:44:01.277Z,23.87
2018-05-17T05:46:27.105Z,22.40
2018-05-17T05:48:52.856Z,23.67
2018-05-17T05:51:20.407Z,26.87
2018-05-17T05:53:46.290Z,23.47
2018-05-17T05:56:12.033Z,23.63
2018-05-17T05:58:37.790Z,25.47
2018-05-17T06:01:03.545Z,25.83
2018-05-17T06:03:29.347Z,24.43
2018-05-17T06:05:55.121Z,26.63
2018-05-17T06:08:20.947Z,25.97
2018-05-17T06:10:46.682Z,27.63
2018-05-17T06:13:12.453Z,28.33
2018-05-17T06:15:38.788Z,28.20
2018-05-17T06:18:04.604Z,28.63
2018-05-17T06:20:30.365Z,27.97
2018-05-17T06:22:56.121Z,26.27
2018-05-17T06:25:21.901Z,27.37
2018-05-17T06:27:47.674Z,30.17
2018-05-17T06:30:13.534Z,28.50
2018-05-17T06:32:39.302Z,28.13
2018-05-17T06:35:05.065Z,28.37
2018-05-17T06:37:30.850Z,27.97
2018-05-17T06:39:56.592Z,29.40
2018-05-17T06:42:22.350Z,29.80
2018-05-17T06:44:55.665Z,30.77
2018-05-17T06:47:21.794Z,29.03
2018-05-17T06:49:47.557Z,30.60
2018-05-17T06:52:13.310Z,29.13
2018-05-17T06:54:39.093Z,29.03
2018-05-17T06:57:04.849Z,29.40
2018-05-17T06:59:30.608Z,33.83
2018-05-17T07:01:56.361Z,29.63
2018-05-17T07:04:22.126Z,28.43
2018-05-17T07:06:47.901Z,35.30
2018-05-17T07:09:13.657Z,30.20
2018-05-17T07:11:39.427Z,30.10
2018-05-17T07:14:05.170Z,27.33
2018-05-17T07:16:30.977Z,28.93
2018-05-17T07:18:56.741Z,28.67
2018-05-17T07:21:22.497Z,30.77
2018-05-17T07:23:48.254Z,28.50
2018-05-17T07:26:21.039Z,26.70
2018-05-17T07:28:46.800Z,30.83
2018-05-17T07:31:12.552Z,29.97
2018-05-17T07:33:38.304Z,31.70
2018-05-17T07:36:04.073Z,28.50
2018-05-17T07:38:29.821Z,30.20
2018-05-17T07:40:55.597Z,24.77
2018-05-17T07:43:21.354Z,27.10
2018-05-17T07:45:47.117Z,32.50
2018-05-17T07:48:12.878Z,29.80
2018-05-17T07:50:38.633Z,23.07
2018-05-17T07:53:04.385Z,23.60
2018-05-17T07:55:30.131Z,23.70
2018-05-17T07:57:55.902Z,26.27
2018-05-17T08:00:21.709Z,28.53
2018-05-17T08:02:47.460Z,22.77
2018-05-17T08:05:13.210Z,29.63
2018-05-17T08:07:38.969Z,25.33
2018-05-17T08:10:04.745Z,27.17
2018-05-17T08:12:30.589Z,27.60
2018-05-17T08:14:56.334Z,25.27
2018-05-17T08:17:22.103Z,20.57
2018-05-17T08:19:47.862Z,25.30
2018-05-17T08:22:13.613Z,23.77
2018-05-17T08:24:39.381Z,21.60
2018-05-17T08:27:05.131Z,19.53
2018-05-17T08:29:30.893Z,25.03
2018-05-17T08:31:56.637Z,25.97
2018-05-17T08:34:22.402Z,22.57
2018-05-17T08:36:48.288Z,20.53
2018-05-17T08:39:13.942Z,25.40
2018-05-17T08:41:39.697Z,22.60
2018-05-17T08:44:05.463Z,23.50
2018-05-17T08:46:31.217Z,23.43
2018-05-17T08:48:56.969Z,21.27
2018-05-17T08:51:22.722Z,20.20
2018-05-17T08:53:48.490Z,24.23
2018-05-17T08:56:14.242Z,25.57
2018-05-17T08:58:40.017Z,25.60
2018-05-17T09:01:05.778Z,23.23
2018-05-17T09:03:31.534Z,24.20
2018-05-17T09:05:57.311Z,24.27
2018-05-17T09:08:23.062Z,24.80
2018-05-17T09:10:48.824Z,25.10
2018-05-17T09:13:14.577Z,20.33
2018-05-17T09:15:40.355Z,20.33
2018-05-17T09:18:06.108Z,19.33
2018-05-17T09:20:31.926Z,21.70
2018-05-17T09:22:57.645Z,21.23
2018-05-17T09:25:23.398Z,19.63
2018-05-17T09:27:49.153Z,24.13
2018-05-17T09:30:14.921Z,23.93
2018-05-17T09:32:40.686Z,19.23
2018-05-17T09:35:06.438Z,19.60
2018-05-17T09:37:32.193Z,19.20
2018-05-17T09:39:58.027Z,20.50
2018-05-17T09:42:23.721Z,19.70
2018-05-17T09:44:49.475Z,20.53
2018-05-17T09:47:15.242Z,17.30
2018-05-17T09:49:41.004Z,20.30
2018-05-17T09:52:06.766Z,22.33
2018-05-17T09:54:32.513Z,20.03
2018-05-17T09:56:58.265Z,19.47
2018-05-17T09:59:24.016Z,29.30
2018-05-17T10:01:49.770Z,18.10
2018-05-17T10:04:15.522Z,23.13
2018-05-17T10:06:41.307Z,24.13
2018-05-17T10:09:07.118Z,20.97
2018-05-17T10:11:32.874Z,16.67
2018-05-17T10:13:58.649Z,15.37
2018-05-17T10:16:24.397Z,20.60
2018-05-17T10:18:50.162Z,16.27
2018-05-17T10:21:15.917Z,17.47
2018-05-17T10:23:41.674Z,20.23
2018-05-17T10:26:07.429Z,14.50
2018-05-17T10:28:33.198Z,14.93
2018-05-17T10:30:58.963Z,16.23
2018-05-17T10:33:24.729Z,15.30
2018-05-17T10:35:50.489Z,12.90
2018-05-17T10:38:16.248Z,12.97
2018-05-17T10:40:41.997Z,19.47
2018-05-17T10:43:07.751Z,17.50
2018-05-17T10:45:33.528Z,15.67
2018-05-17T10:47:59.279Z,16.47
2018-05-17T10:50:25.038Z,17.77
2018-05-17T10:52:50.802Z,15.00
2018-05-17T10:55:16.557Z,18.57
2018-05-17T10:57:42.324Z,14.97
2018-05-17T11:00:08.089Z,13.83
2018-05-17T11:02:33.851Z,12.77
2018-05-17T11:04:59.610Z,14.30
2018-05-17T11:07:25.366Z,15.87
2018-05-17T11:09:51.117Z,14.70
2018-05-17T11:12:16.943Z,13.10
2018-05-17T11:14:42.642Z,14.17
2018-05-17T11:17:08.406Z,13.47
2018-05-17T11:19:34.158Z,13.77
2018-05-17T11:21:59.922Z,12.57
2018-05-17T11:24:25.672Z,15.00
2018-05-17T11:26:51.437Z,13.47
2018-05-17T11:29:17.193Z,12.17
2018-05-17T11:31:42.965Z,12.80
2018-05-17T11:34:08.716Z,11.37
2018-05-17T11:36:34.493Z,13.67
2018-05-17T11:39:00.245Z,15.87
2018-05-17T11:41:25.995Z,13.60
2018-05-17T11:43:51.785Z,15.17
2018-05-17T11:46:17.565Z,15.37
2018-05-17T11:48:43.327Z,13.53
2018-05-17T11:51:09.085Z,14.03
2018-05-17T11:53:34.839Z,15.80
2018-05-17T11:56:00.589Z,13.77
2018-05-17T11:58:26.353Z,13.37
2018-05-17T12:00:52.112Z,17.50
2018-05-17T12:03:17.867Z,14.43
2018-05-17T12:05:43.701Z,12.83
2018-05-17T12:08:09.481Z,16.50
2018-05-17T12:10:35.229Z,13.10
2018-05-17T12:13:01.010Z,12.30
2018-05-17T12:15:26.757Z,12.20
2018-05-17T12:17:52.525Z,12.87
2018-05-17T12:20:18.286Z,12.00
2018-05-17T12:22:44.034Z,14.43
2018-05-17T12:25:09.806Z,10.77
2018-05-17T12:27:35.562Z,11.77
2018-05-17T12:30:01.339Z,10.27
2018-05-17T12:32:27.102Z,11.10
2018-05-17T12:34:52.864Z,10.73
2018-05-17T12:37:18.617Z,10.13
2018-05-17T12:39:44.402Z,8.90
2018-05-17T12:42:10.158Z,9.30
2018-05-17T12:44:35.937Z,9.50
2018-05-17T12:47:01.687Z,11.63
2018-05-17T12:49:27.461Z,10.67
2018-05-17T12:51:53.218Z,10.70
2018-05-17T12:54:18.989Z,10.83
2018-05-17T12:56:44.770Z,10.80
2018-05-17T12:59:10.533Z,10.70
2018-05-17T13:01:36.289Z,10.10
2018-05-17T13:04:02.081Z,10.03
2018-05-17T13:06:27.842Z,12.57
2018-05-17T13:08:53.601Z,10.03
2018-05-17T13:11:19.366Z,12.33
2018-05-17T13:13:45.122Z,9.97
2018-05-17T13:16:10.952Z,8.67
2018-05-17T13:18:36.721Z,9.40
2018-05-17T13:21:02.488Z,12.03
2018-05-17T13:23:28.241Z,8.60
2018-05-17T13:25:54.006Z,7.93
2018-05-17T13:28:19.782Z,8.67
2018-05-17T13:30:45.545Z,10.40
2018-05-17T13:33:11.302Z,7.53
2018-05-17T13:35:37.093Z,7.50
2018-05-17T13:38:02.874Z,7.43
2018-05-17T13:40:28.630Z,7.17
2018-05-17T13:42:54.385Z,7.00
2018-05-17T13:45:20.149Z,7.50
2018-05-17T13:47:45.938Z,9.53
2018-05-17T13:50:12.277Z,7.07
2018-05-17T13:52:38.084Z,7.07
2018-05-17T13:55:03.893Z,11.10
2018-05-17T13:57:31.515Z,7.63
2018-05-17T13:59:57.282Z,12.63
2018-05-17T14:02:23.086Z,7.33
2018-05-17T14:04:48.821Z,8.20
2018-05-17T14:07:14.600Z,10.80
2018-05-17T14:09:40.404Z,8.20
2018-05-17T14:12:06.151Z,10.07
2018-05-17T14:14:31.953Z,8.27
2018-05-17T14:16:57.697Z,8.70
2018-05-17T14:19:23.452Z,7.17
2018-05-17T14:21:49.212Z,8.57
2018-05-17T14:24:14.978Z,7.50
2018-05-17T14:26:40.729Z,7.83
2018-05-17T14:29:06.487Z,7.90
2018-05-17T14:31:32.245Z,9.30
2018-05-17T14:33:59.387Z,9.57
2018-05-17T14:36:25.201Z,12.23
2018-05-17T14:38:51.022Z,8.10
2018-05-17T14:41:16.770Z,7.67
2018-05-17T14:43:42.514Z,7.30
2018-05-17T14:46:08.325Z,7.00
2018-05-17T14:48:34.016Z,10.40
2018-05-17T14:50:59.795Z,9.10
2018-05-17T14:53:25.545Z,9.67
2018-05-17T14:55:51.381Z,9.43
2018-05-17T14:58:17.104Z,8.40
2018-05-17T15:00:42.861Z,9.53
2018-05-17T15:03:08.603Z,10.90
2018-05-17T15:05:34.361Z,10.73
2018-05-17T15:08:00.105Z,10.80
2018-05-17T15:10:25.873Z,10.97
2018-05-17T15:12:51.634Z,7.80
2018-05-17T15:15:17.449Z,9.63
2018-05-17T15:17:43.228Z,12.73
2018-05-17T15:20:08.979Z,8.67
2018-05-17T15:22:34.741Z,11.37
2018-05-17T15:25:00.538Z,10.30
2018-05-17T15:27:26.368Z,9.20
2018-05-17T15:29:52.135Z,10.30
2018-05-17T15:32:17.833Z,10.87
2018-05-17T15:34:43.581Z,9.33
2018-05-17T15:37:09.381Z,7.30
2018-05-17T15:39:35.154Z,10.30
2018-05-17T15:42:00.914Z,8.80
2018-05-17T15:44:26.700Z,13.57
2018-05-17T15:46:52.465Z,5.93
2018-05-17T15:49:18.206Z,10.90
2018-05-17T15:51:43.957Z,8.63
2018-05-17T15:54:09.735Z,13.10
2018-05-17T15:56:35.494Z,11.20
2018-05-17T15:59:01.257Z,9.20
2018-05-17T16:01:27.059Z,16.07
2018-05-17T16:03:52.817Z,8.97
2018-05-17T16:06:18.576Z,14.97
2018-05-17T16:08:44.354Z,8.90
2018-05-17T16:11:10.138Z,14.70
2018-05-17T16:13:35.906Z,10.97
2018-05-17T16:16:01.653Z,9.70
2018-05-17T16:18:27.416Z,10.97
2018-05-17T16:20:53.166Z,15.33
2018-05-17T16:23:18.978Z,8.40
2018-05-17T16:25:44.743Z,7.30
2018-05-17T16:28:10.497Z,12.23
2018-05-17T16:30:36.310Z,13.23
2018-05-17T16:33:02.065Z,10.73
2018-05-17T16:35:27.839Z,11.93
2018-05-17T16:37:53.590Z,13.10
2018-05-17T16:40:19.354Z,9.20
2018-05-17T16:42:45.185Z,13.67
2018-05-17T16:45:10.878Z,10.40
2018-05-17T16:47:36.617Z,7.63
2018-05-17T16:50:02.386Z,7.53
2018-05-17T16:52:28.257Z,8.97
2018-05-17T16:54:53.954Z,8.87
2018-05-17T16:57:19.702Z,9.80
2018-05-17T16:59:45.469Z,11.33
2018-05-17T17:02:11.238Z,14.37
2018-05-17T17:04:37.025Z,7.87
2018-05-17T17:07:02.780Z,7.33
2018-05-17T17:09:28.529Z,12.40
2018-05-17T17:11:54.282Z,10.03
2018-05-17T17:14:20.036Z,15.10
2018-05-17T17:16:45.799Z,11.87
2018-05-17T17:19:12.450Z,9.60
2018-05-17T17:21:39.358Z,8.53
2018-05-17T17:24:08.472Z,8.47
2018-05-17T17:26:34.522Z,13.80
2018-05-17T17:29:02.190Z,9.97
2018-05-17T17:31:28.038Z,8.33
2018-05-17T17:33:55.400Z,10.10
2018-05-17T17:36:21.290Z,9.87
2018-05-17T17:38:47.016Z,9.07
2018-05-17T17:41:12.794Z,8.47
2018-05-17T17:43:38.557Z,9.53
2018-05-17T17:46:04.329Z,10.93
2018-05-17T17:48:30.086Z,10.77
2018-05-17T17:50:55.825Z,4.80
2018-05-17T17:53:21.593Z,12.50
2018-05-17T17:55:47.362Z,14.40
2018-05-17T17:58:13.164Z,11.17
2018-05-17T18:00:38.931Z,15.00
2018-05-17T18:03:04.691Z,11.27
2018-05-17T18:05:30.481Z,11.63
2018-05-17T18:07:56.191Z,14.07
2018-05-17T18:10:21.989Z,15.03
2018-05-17T18:12:47.773Z,10.20
2018-05-17T18:15:13.536Z,10.20
2018-05-17T18:17:39.311Z,9.50
2018-05-17T18:20:05.057Z,6.73
2018-05-17T18:22:31.787Z,11.97
2018-05-17T18:24:57.636Z,10.63
2018-05-17T18:27:23.311Z,9.20
2018-05-17T18:29:49.071Z,10.43
2018-05-17T18:32:14.832Z,10.27
2018-05-17T18:34:40.632Z,9.97
2018-05-17T18:37:06.388Z,15.63
2018-05-17T18:39:32.157Z,11.30
2018-05-17T18:41:57.906Z,18.73
2018-05-17T18:44:23.671Z,13.20
2018-05-17T18:46:49.460Z,13.10
2018-05-17T18:49:15.238Z,11.13
2018-05-17T18:51:41.005Z,17.17
2018-05-17T18:54:06.765Z,18.07
2018-05-17T18:56:32.520Z,15.20
2018-05-17T18:58:58.289Z,21.20
2018-05-17T19:01:24.033Z,14.77
2018-05-17T19:03:49.785Z,13.13
2018-05-17T19:06:15.531Z,13.80
2018-05-17T19:08:41.317Z,10.90
2018-05-17T19:11:07.065Z,18.13
2018-05-17T19:13:32.825Z,12.00
2018-05-17T19:15:58.583Z,11.03
2018-05-17T19:18:24.337Z,12.03
2018-05-17T19:20:50.102Z,12.23
2018-05-17T19:23:15.849Z,12.40
2018-05-17T19:25:41.612Z,11.53
2018-05-17T19:28:07.401Z,14.53
2018-05-17T19:30:33.164Z,11.50
2018-05-17T19:32:58.922Z,11.97
2018-05-17T19:35:24.684Z,13.30
2018-05-17T19:37:50.446Z,12.93
2018-05-17T19:40:16.213Z,11.70
2018-05-17T19:42:41.982Z,15.33
2018-05-17T19:45:07.746Z,13.73
2018-05-17T19:47:33.497Z,17.07
2018-05-17T19:49:59.241Z,11.73
2018-05-17T19:52:25.017Z,16.20
2018-05-17T19:54:50.785Z,16.77
2018-05-17T19:57:16.541Z,12.63
2018-05-17T19:59:49.089Z,11.60
2018-05-17T20:02:14.850Z,11.67
2018-05-17T20:04:40.598Z,12.97
2018-05-17T20:07:06.361Z,8.90
2018-05-17T20:09:32.122Z,13.57
2018-05-17T20:11:57.930Z,12.10
2018-05-17T20:14:23.681Z,13.30
2018-05-17T20:16:49.441Z,10.57
2018-05-17T20:19:15.204Z,10.63
2018-05-17T20:21:40.949Z,12.50
2018-05-17T20:24:06.712Z,13.90
2018-05-17T20:26:32.465Z,8.73
2018-05-17T20:28:58.253Z,15.47
2018-05-17T20:31:24.001Z,15.90
2018-05-17T20:33:49.780Z,20.90
2018-05-17T20:36:15.546Z,14.30
2018-05-17T20:38:41.321Z,11.60
2018-05-17T20:41:07.081Z,17.00
2018-05-17T20:43:32.842Z,9.80
2018-05-17T20:45:58.623Z,15.13
2018-05-17T20:48:24.382Z,10.40
2018-05-17T20:50:50.141Z,11.30
2018-05-17T20:53:16.013Z,11.53
2018-05-17T20:55:41.786Z,22.60
2018-05-17T20:58:07.558Z,14.60
2018-05-17T21:00:33.378Z,12.77
2018-05-17T21:02:59.116Z,22.90
2018-05-17T21:05:24.893Z,11.67
2018-05-17T21:07:50.860Z,13.20
2018-05-17T21:10:16.643Z,10.17
2018-05-17T21:12:42.415Z,14.13
2018-05-17T21:15:08.189Z,14.00
2018-05-17T21:17:33.957Z,15.80
2018-05-17T21:19:59.738Z,13.53
2018-05-17T21:22:26.195Z,12.23
2018-05-17T21:24:51.954Z,18.00
2018-05-17T21:27:17.813Z,14.07
2018-05-17T21:29:43.849Z,15.70
2018-05-17T21:32:09.620Z,14.50
2018-05-17T21:34:35.381Z,11.30
2018-05-17T21:37:01.290Z,15.10
2018-05-17T21:39:27.119Z,12.60
2018-05-17T21:41:52.826Z,13.97
2018-05-17T21:44:18.586Z,12.83
2018-05-17T21:46:44.350Z,22.80
2018-05-17T21:49:10.109Z,21.10
2018-05-17T21:51:35.899Z,19.37
2018-05-17T21:54:01.662Z,8.93
2018-05-17T21:56:27.445Z,12.10
2018-05-17T21:58:53.201Z,14.47
2018-05-17T22:01:18.955Z,15.23
2018-05-17T22:03:45.234Z,12.97
2018-05-17T22:06:12.764Z,20.73
2018-05-17T22:08:38.532Z,16.13
2018-05-17T22:11:04.292Z,11.70
2018-05-17T22:13:30.069Z,16.40
2018-05-17T22:15:55.845Z,13.70
2018-05-17T22:18:21.618Z,17.07
2018-05-17T22:20:47.377Z,13.67
2018-05-17T22:23:13.149Z,15.37
2018-05-17T22:25:38.927Z,15.10
2018-05-17T22:28:04.697Z,12.77
2018-05-17T22:30:30.450Z,14.63
2018-05-17T22:32:56.206Z,12.07
2018-05-17T22:35:21.970Z,17.60
2018-05-17T22:37:47.742Z,11.83
2018-05-17T22:40:13.522Z,19.70
2018-05-17T22:42:39.294Z,13.63
2018-05-17T22:45:05.212Z,19.10
2018-05-17T22:47:30.994Z,17.73
2018-05-17T22:49:57.662Z,19.03
2018-05-17T22:52:25.225Z,23.37
2018-05-17T22:54:51.011Z,16.57
2018-05-17T23:10:42.326Z,13.70
2018-05-17T23:13:08.102Z,18.10
2018-05-17T23:15:33.869Z,18.37
2018-05-17T23:17:59.637Z,15.70
2018-05-17T23:20:25.401Z,11.57
2018-05-17T23:22:51.170Z,13.97
2018-05-17T23:25:16.955Z,21.73
2018-05-17T23:27:42.718Z,14.90
2018-05-17T23:30:08.489Z,16.50
2018-05-17T23:32:34.254Z,21.13
2018-05-17T23:35:00.017Z,14.90
2018-05-17T23:37:25.797Z,12.87
2018-05-17T23:39:51.554Z,15.87
2018-05-17T23:42:17.337Z,15.90
2018-05-17T23:44:43.094Z,18.10
2018-05-17T23:47:08.871Z,19.77
2018-05-17T23:49:34.639Z,22.87
2018-05-17T23:52:00.426Z,13.60
2018-05-17T23:54:26.187Z,17.70
2018-05-17T23:56:51.962Z,11.40
2018-05-17T23:59:17.738Z,12.77
